sensor_id;sensor_type;location;lat;lon;timestamp;pressure;altitude;pressure_sealevel;temperature;humidity
15314;BME280;7757;52.626;4.746;2022-12-29T00:00:13;99518.75;;;17.14;62.68
15314;BME280;7757;52.626;4.746;2022-12-29T00:02:39;99527.59;;;17.09;62.82
15314;BME280;7757;52.626;4.746;2022-12-29T00:05:06;99516.28;;;17.12;62.30
15314;BME280;7757;52.626;4.746;2022-12-29T00:07:33;99524.97;;;17.14;62.65
15314;BME280;7757;52.626;4.746;2022-12-29T00:10:01;99517.91;;;17.13;62.84
15314;BME280;7757;52.626;4.746;2022-12-29T00:12:28;99512.78;;;17.12;62.04
15314;BME280;7757;52.626;4.746;2022-12-29T00:15:15;99516.56;;;17.11;62.49
15314;BME280;7757;52.626;4.746;2022-12-29T00:17:59;99505.22;;;17.09;62.46
15314;BME280;7757;52.626;4.746;2022-12-29T00:20:25;99498.97;;;17.03;62.40
15314;BME280;7757;52.626;4.746;2022-12-29T00:23:10;99507.91;;;17.09;62.43
15314;BME280;7757;52.626;4.746;2022-12-29T00:25:55;99500.59;;;17.09;63.17
15314;BME280;7757;52.626;4.746;2022-12-29T00:28:39;99491.69;;;17.09;62.52
15314;BME280;7757;52.626;4.746;2022-12-29T00:31:23;99486.81;;;17.06;62.35
15314;BME280;7757;52.626;4.746;2022-12-29T00:34:22;99500.31;;;17.06;62.24
15314;BME280;7757;52.626;4.746;2022-12-29T00:37:07;99485.47;;;17.03;62.70
15314;BME280;7757;52.626;4.746;2022-12-29T00:39:33;99480.06;;;17.03;62.54
15314;BME280;7757;52.626;4.746;2022-12-29T00:42:27;99495.44;;;17.03;62.62
15314;BME280;7757;52.626;4.746;2022-12-29T00:45:26;99490.88;;;17.03;62.66
15314;BME280;7757;52.626;4.746;2022-12-29T00:47:52;99482.19;;;17.01;62.96
15314;BME280;7757;52.626;4.746;2022-12-29T00:50:19;99473.25;;;17.01;62.83
15314;BME280;7757;52.626;4.746;2022-12-29T00:52:45;99468.94;;;17.00;62.59
15314;BME280;7757;52.626;4.746;2022-12-29T00:55:11;99471.38;;;17.01;62.85
15314;BME280;7757;52.626;4.746;2022-12-29T00:57:39;99468.94;;;17.00;62.81
15314;BME280;7757;52.626;4.746;2022-12-29T01:00:07;99453.28;;;16.97;62.64
15314;BME280;7757;52.626;4.746;2022-12-29T01:02:34;99446.53;;;16.99;62.99
15314;BME280;7757;52.626;4.746;2022-12-29T01:05:00;99450.03;;;17.00;62.93
15314;BME280;7757;52.626;4.746;2022-12-29T01:07:27;99435.97;;;16.98;62.78
15314;BME280;7757;52.626;4.746;2022-12-29T01:09:53;99445.16;;;16.97;62.58
15314;BME280;7757;52.626;4.746;2022-12-29T01:12:39;99431.66;;;16.97;63.36
15314;BME280;7757;52.626;4.746;2022-12-29T01:15:11;99437.31;;;16.95;63.15
15314;BME280;7757;52.626;4.746;2022-12-29T01:17:38;99453.28;;;16.97;63.27
15314;BME280;7757;52.626;4.746;2022-12-29T01:20:06;99437.06;;;16.97;63.29
15314;BME280;7757;52.626;4.746;2022-12-29T01:22:32;99449.75;;;16.96;63.12
15314;BME280;7757;52.626;4.746;2022-12-29T01:24:59;99456.50;;;16.94;62.88
15314;BME280;7757;52.626;4.746;2022-12-29T01:27:26;99450.81;;;16.95;63.18
15314;BME280;7757;52.626;4.746;2022-12-29T01:29:54;99453.78;;;16.94;63.39
15314;BME280;7757;52.626;4.746;2022-12-29T01:32:20;99448.38;;;16.94;62.77
15314;BME280;7757;52.626;4.746;2022-12-29T01:34:47;99440.28;;;16.94;63.22
15314;BME280;7757;52.626;4.746;2022-12-29T01:37:14;99435.13;;;16.92;63.54
15314;BME280;7757;52.626;4.746;2022-12-29T01:39:40;99444.88;;;16.93;62.79
15314;BME280;7757;52.626;4.746;2022-12-29T01:42:14;99444.56;;;16.90;63.05
15314;BME280;7757;52.626;4.746;2022-12-29T01:44:49;99458.06;;;16.90;62.97
15314;BME280;7757;52.626;4.746;2022-12-29T01:47:22;99445.13;;;16.92;63.08
15314;BME280;7757;52.626;4.746;2022-12-29T01:49:52;99440.00;;;16.90;62.95
15314;BME280;7757;52.626;4.746;2022-12-29T01:52:19;99446.22;;;16.91;63.11
15314;BME280;7757;52.626;4.746;2022-12-29T01:54:50;99449.16;;;16.89;63.19
15314;BME280;7757;52.626;4.746;2022-12-29T01:57:21;99452.69;;;16.90;62.99
15314;BME280;7757;52.626;4.746;2022-12-29T01:59:53;99438.88;;;16.86;63.45
15314;BME280;7757;52.626;4.746;2022-12-29T02:02:23;99445.91;;;16.87;63.19
15314;BME280;7757;52.626;4.746;2022-12-29T02:04:51;99446.19;;;16.86;63.38
15314;BME280;7757;52.626;4.746;2022-12-29T02:07:21;99435.66;;;16.89;63.04
15314;BME280;7757;52.626;4.746;2022-12-29T02:09:50;99434.88;;;16.89;63.30
15314;BME280;7757;52.626;4.746;2022-12-29T02:12:19;99421.88;;;16.86;62.94
15314;BME280;7757;52.626;4.746;2022-12-29T02:14:48;99432.41;;;16.87;63.00
15314;BME280;7757;52.626;4.746;2022-12-29T02:17:28;99429.97;;;16.86;62.46
15314;BME280;7757;52.626;4.746;2022-12-29T02:20:21;99433.75;;;16.85;63.08
15314;BME280;7757;52.626;4.746;2022-12-29T02:23:04;99426.47;;;16.85;62.88
15314;BME280;7757;52.626;4.746;2022-12-29T02:25:50;99420.50;;;16.83;63.52
15314;BME280;7757;52.626;4.746;2022-12-29T02:28:46;99405.38;;;16.82;63.05
15314;BME280;7757;52.626;4.746;2022-12-29T02:31:22;99411.84;;;16.81;63.40
15314;BME280;7757;52.626;4.746;2022-12-29T02:34:00;99411.84;;;16.81;62.95
15314;BME280;7757;52.626;4.746;2022-12-29T02:36:40;99410.50;;;16.79;63.07
15314;BME280;7757;52.626;4.746;2022-12-29T02:39:15;99396.16;;;16.78;63.50
15314;BME280;7757;52.626;4.746;2022-12-29T02:41:52;99399.94;;;16.77;62.73
15314;BME280;7757;52.626;4.746;2022-12-29T02:44:28;99405.34;;;16.77;62.89
15314;BME280;7757;52.626;4.746;2022-12-29T02:47:05;99426.16;;;16.77;63.39
15314;BME280;7757;52.626;4.746;2022-12-29T02:49:39;99410.72;;;16.77;63.02
15314;BME280;7757;52.626;4.746;2022-12-29T02:52:14;99434.50;;;16.75;63.27
15314;BME280;7757;52.626;4.746;2022-12-29T02:54:42;99415.59;;;16.75;63.15
15314;BME280;7757;52.626;4.746;2022-12-29T02:57:10;99406.94;;;16.73;63.80
15314;BME280;7757;52.626;4.746;2022-12-29T02:59:37;99415.03;;;16.73;63.28
15314;BME280;7757;52.626;4.746;2022-12-29T03:02:29;99426.38;;;16.75;63.39
15314;BME280;7757;52.626;4.746;2022-12-29T03:05:22;99417.75;;;16.73;63.40
15314;BME280;7757;52.626;4.746;2022-12-29T03:08:02;99422.31;;;16.72;63.28
15314;BME280;7757;52.626;4.746;2022-12-29T03:10:37;99417.44;;;16.69;63.47
15314;BME280;7757;52.626;4.746;2022-12-29T03:13:13;99421.78;;;16.70;63.31
15314;BME280;7757;52.626;4.746;2022-12-29T03:16:04;99425.56;;;16.69;62.97
15314;BME280;7757;52.626;4.746;2022-12-29T03:18:41;99423.13;;;16.68;63.60
15314;BME280;7757;52.626;4.746;2022-12-29T03:21:15;99419.31;;;16.69;62.98
15314;BME280;7757;52.626;4.746;2022-12-29T03:23:45;99415.53;;;16.65;63.12
15314;BME280;7757;52.626;4.746;2022-12-29T03:26:15;99411.75;;;16.66;63.12
15314;BME280;7757;52.626;4.746;2022-12-29T03:28:47;99422.00;;;16.64;62.82
15314;BME280;7757;52.626;4.746;2022-12-29T03:31:17;99440.09;;;16.63;63.01
15314;BME280;7757;52.626;4.746;2022-12-29T03:33:47;99420.94;;;16.65;63.52
15314;BME280;7757;52.626;4.746;2022-12-29T03:36:20;99427.66;;;16.62;63.25
15314;BME280;7757;52.626;4.746;2022-12-29T03:38:55;99431.44;;;16.61;63.21
15314;BME280;7757;52.626;4.746;2022-12-29T03:41:26;99430.88;;;16.59;63.37
15314;BME280;7757;52.626;4.746;2022-12-29T03:43:54;99428.75;;;16.61;63.01
15314;BME280;7757;52.626;4.746;2022-12-29T03:46:21;99423.84;;;16.58;63.52
15314;BME280;7757;52.626;4.746;2022-12-29T03:48:49;99427.38;;;16.59;63.41
15314;BME280;7757;52.626;4.746;2022-12-29T03:51:16;99431.13;;;16.58;63.72
15314;BME280;7757;52.626;4.746;2022-12-29T03:53:42;99436.78;;;16.56;63.23
15314;BME280;7757;52.626;4.746;2022-12-29T03:56:09;99436.53;;;16.58;63.65
15314;BME280;7757;52.626;4.746;2022-12-29T03:58:35;99442.44;;;16.55;63.80
15314;BME280;7757;52.626;4.746;2022-12-29T04:01:02;99433.28;;;16.56;63.61
15314;BME280;7757;52.626;4.746;2022-12-29T04:03:29;99418.38;;;16.53;63.28
15314;BME280;7757;52.626;4.746;2022-12-29T04:05:56;99424.03;;;16.52;63.87
15314;BME280;7757;52.626;4.746;2022-12-29T04:08:23;99423.78;;;16.53;63.69
15314;BME280;7757;52.626;4.746;2022-12-29T04:10:50;99429.44;;;16.52;63.39
15314;BME280;7757;52.626;4.746;2022-12-29T04:13:16;99430.25;;;16.52;63.59
15314;BME280;7757;52.626;4.746;2022-12-29T04:15:43;99440.81;;;16.54;63.16
15314;BME280;7757;52.626;4.746;2022-12-29T04:18:10;99425.38;;;16.49;63.33
15314;BME280;7757;52.626;4.746;2022-12-29T04:20:37;99410.56;;;16.52;63.59
15314;BME280;7757;52.626;4.746;2022-12-29T04:23:22;99427.81;;;16.51;63.29
15314;BME280;7757;52.626;4.746;2022-12-29T04:25:49;99426.44;;;16.48;63.21
15314;BME280;7757;52.626;4.746;2022-12-29T04:28:16;99398.91;;;16.46;63.57
15314;BME280;7757;52.626;4.746;2022-12-29T04:30:43;99395.94;;;16.48;63.42
15314;BME280;7757;52.626;4.746;2022-12-29T04:33:10;99397.03;;;16.47;63.28
15314;BME280;7757;52.626;4.746;2022-12-29T04:35:36;99410.53;;;16.47;63.78
15314;BME280;7757;52.626;4.746;2022-12-29T04:38:03;99411.34;;;16.47;63.85
15314;BME280;7757;52.626;4.746;2022-12-29T04:40:31;99422.13;;;16.47;63.50
15314;BME280;7757;52.626;4.746;2022-12-29T04:42:58;99429.13;;;16.48;63.71
15314;BME280;7757;52.626;4.746;2022-12-29T04:45:24;99431.28;;;16.46;63.46
15314;BME280;7757;52.626;4.746;2022-12-29T04:47:51;99440.72;;;16.44;62.95
15314;BME280;7757;52.626;4.746;2022-12-29T04:50:17;99432.88;;;16.42;63.19
15314;BME280;7757;52.626;4.746;2022-12-29T04:52:44;99441.53;;;16.44;63.39
15314;BME280;7757;52.626;4.746;2022-12-29T04:55:11;99441.78;;;16.43;63.41
15314;BME280;7757;52.626;4.746;2022-12-29T04:57:39;99440.16;;;16.42;63.59
15314;BME280;7757;52.626;4.746;2022-12-29T05:00:06;99439.88;;;16.38;63.47
15314;BME280;7757;52.626;4.746;2022-12-29T05:02:34;99446.63;;;16.41;63.35
15314;BME280;7757;52.626;4.746;2022-12-29T05:05:02;99447.69;;;16.40;63.68
15314;BME280;7757;52.626;4.746;2022-12-29T05:07:29;99447.16;;;16.38;63.79
15314;BME280;7757;52.626;4.746;2022-12-29T05:09:56;99449.84;;;16.38;63.82
15314;BME280;7757;52.626;4.746;2022-12-29T05:12:22;99458.50;;;16.40;63.52
15314;BME280;7757;52.626;4.746;2022-12-29T05:14:50;99469.56;;;16.38;63.16
15314;BME280;7757;52.626;4.746;2022-12-29T05:17:17;99466.03;;;16.38;63.87
15314;BME280;7757;52.626;4.746;2022-12-29T05:19:43;99462.53;;;16.37;63.37
15314;BME280;7757;52.626;4.746;2022-12-29T05:22:10;99447.41;;;16.36;63.17
15314;BME280;7757;52.626;4.746;2022-12-29T05:24:36;99439.88;;;16.38;63.16
15314;BME280;7757;52.626;4.746;2022-12-29T05:27:03;99443.38;;;16.39;63.32
15314;BME280;7757;52.626;4.746;2022-12-29T05:29:30;99444.44;;;16.38;63.76
15314;BME280;7757;52.626;4.746;2022-12-29T05:31:58;99445.50;;;16.37;63.13
15314;BME280;7757;52.626;4.746;2022-12-29T05:34:25;99454.13;;;16.34;63.45
15314;BME280;7757;52.626;4.746;2022-12-29T05:36:52;99455.75;;;16.35;63.80
15314;BME280;7757;52.626;4.746;2022-12-29T05:39:18;99460.34;;;16.34;63.50
15314;BME280;7757;52.626;4.746;2022-12-29T05:41:45;99450.06;;;16.31;63.10
15314;BME280;7757;52.626;4.746;2022-12-29T05:44:11;99453.56;;;16.32;63.06
15314;BME280;7757;52.626;4.746;2022-12-29T05:46:38;99453.56;;;16.32;63.71
15314;BME280;7757;52.626;4.746;2022-12-29T05:49:06;99464.59;;;16.30;63.56
15314;BME280;7757;52.626;4.746;2022-12-29T05:51:33;99461.38;;;16.28;63.38
15314;BME280;7757;52.626;4.746;2022-12-29T05:54:00;99471.34;;;16.28;63.90
15314;BME280;7757;52.626;4.746;2022-12-29T05:56:27;99463.00;;;16.29;63.97
15314;BME280;7757;52.626;4.746;2022-12-29T05:58:54;99473.53;;;16.31;63.27
15314;BME280;7757;52.626;4.746;2022-12-29T06:01:20;99484.59;;;16.29;63.16
15314;BME280;7757;52.626;4.746;2022-12-29T06:03:47;99480.25;;;16.28;63.09
15314;BME280;7757;52.626;4.746;2022-12-29T06:06:16;99488.63;;;16.27;63.23
15314;BME280;7757;52.626;4.746;2022-12-29T06:08:43;99484.00;;;16.27;63.40
15314;BME280;7757;52.626;4.746;2022-12-29T06:11:09;99473.47;;;16.26;63.99
15314;BME280;7757;52.626;4.746;2022-12-29T06:13:36;99482.63;;;16.25;63.54
15314;BME280;7757;52.626;4.746;2022-12-29T06:16:03;99487.22;;;16.24;63.46
15314;BME280;7757;52.626;4.746;2022-12-29T06:18:30;99484.78;;;16.23;63.76
15314;BME280;7757;52.626;4.746;2022-12-29T06:20:59;99489.13;;;16.24;63.21
15314;BME280;7757;52.626;4.746;2022-12-29T06:23:28;99504.22;;;16.25;63.57
15314;BME280;7757;52.626;4.746;2022-12-29T06:25:55;99510.13;;;16.22;63.88
15314;BME280;7757;52.626;4.746;2022-12-29T06:28:22;99502.03;;;16.22;64.10
15314;BME280;7757;52.626;4.746;2022-12-29T06:30:49;99502.84;;;16.22;63.36
15314;BME280;7757;52.626;4.746;2022-12-29T06:33:16;99502.59;;;16.24;63.46
15314;BME280;7757;52.626;4.746;2022-12-29T06:35:42;99509.31;;;16.21;63.14
15314;BME280;7757;52.626;4.746;2022-12-29T06:38:11;99504.19;;;16.19;63.71
15314;BME280;7757;52.626;4.746;2022-12-29T06:40:38;99506.09;;;16.24;63.76
15314;BME280;7757;52.626;4.746;2022-12-29T06:43:06;99507.44;;;16.22;63.34
15314;BME280;7757;52.626;4.746;2022-12-29T06:45:33;99512.00;;;16.21;63.40
15314;BME280;7757;52.626;4.746;2022-12-29T06:47:59;99503.34;;;16.19;63.30
15314;BME280;7757;52.626;4.746;2022-12-29T06:50:26;99493.63;;;16.18;62.97
15314;BME280;7757;52.626;4.746;2022-12-29T06:52:52;99495.97;;;16.36;63.83
15314;BME280;7757;52.626;4.746;2022-12-29T06:55:19;99500.53;;;16.62;64.48
15314;BME280;7757;52.626;4.746;2022-12-29T06:57:47;99495.47;;;16.71;64.67
15314;BME280;7757;52.626;4.746;2022-12-29T07:00:15;99494.94;;;16.74;64.79
15314;BME280;7757;52.626;4.746;2022-12-29T07:02:42;99484.50;;;16.83;64.72
15314;BME280;7757;52.626;4.746;2022-12-29T07:05:08;99512.06;;;16.85;65.23
15314;BME280;7757;52.626;4.746;2022-12-29T07:07:35;99502.41;;;16.94;64.99
15314;BME280;7757;52.626;4.746;2022-12-29T07:10:02;99494.84;;;16.96;65.08
15314;BME280;7757;52.626;4.746;2022-12-29T07:12:29;99491.94;;;17.02;64.47
15314;BME280;7757;52.626;4.746;2022-12-29T07:14:56;99490.34;;;17.06;64.33
15314;BME280;7757;52.626;4.746;2022-12-29T07:17:23;99487.09;;;17.09;64.29
15314;BME280;7757;52.626;4.746;2022-12-29T07:19:50;99494.44;;;17.14;64.58
15314;BME280;7757;52.626;4.746;2022-12-29T07:22:17;99490.69;;;17.25;64.26
15314;BME280;7757;52.626;4.746;2022-12-29T07:24:43;99491.00;;;17.28;64.53
15314;BME280;7757;52.626;4.746;2022-12-29T07:27:10;99499.69;;;17.36;64.74
15314;BME280;7757;52.626;4.746;2022-12-29T07:29:36;99498.34;;;17.38;64.57
15314;BME280;7757;52.626;4.746;2022-12-29T07:32:04;99495.94;;;17.42;64.57
15314;BME280;7757;52.626;4.746;2022-12-29T07:34:31;99501.66;;;17.50;64.51
15314;BME280;7757;52.626;4.746;2022-12-29T07:36:58;99493.25;;;17.52;64.35
15314;BME280;7757;52.626;4.746;2022-12-29T07:39:24;99501.81;;;17.28;63.89
15314;BME280;7757;52.626;4.746;2022-12-29T07:41:51;99492.75;;;17.08;64.13
15314;BME280;7757;52.626;4.746;2022-12-29T07:44:18;99503.84;;;17.06;63.31
15314;BME280;7757;52.626;4.746;2022-12-29T07:46:44;99496.59;;;17.12;63.37
15314;BME280;7757;52.626;4.746;2022-12-29T07:49:12;99513.50;;;17.44;63.23
15314;BME280;7757;52.626;4.746;2022-12-29T07:51:39;99496.06;;;17.67;62.75
15314;BME280;7757;52.626;4.746;2022-12-29T07:54:05;99517.47;;;17.83;62.74
15314;BME280;7757;52.626;4.746;2022-12-29T07:56:32;99508.91;;;18.07;61.97
15314;BME280;7757;52.626;4.746;2022-12-29T07:58:58;99517.06;;;18.37;61.12
15314;BME280;7757;52.626;4.746;2022-12-29T08:01:25;99500.88;;;18.62;60.83
15314;BME280;7757;52.626;4.746;2022-12-29T08:03:52;99515.75;;;18.85;59.86
15314;BME280;7757;52.626;4.746;2022-12-29T08:06:19;99514.13;;;18.99;59.25
15314;BME280;7757;52.626;4.746;2022-12-29T08:08:46;99515.72;;;19.20;58.81
15314;BME280;7757;52.626;4.746;2022-12-29T08:11:13;99525.97;;;19.28;58.74
15314;BME280;7757;52.626;4.746;2022-12-29T08:13:40;99525.72;;;19.40;58.26
15314;BME280;7757;52.626;4.746;2022-12-29T08:16:06;99522.22;;;19.39;58.49
15314;BME280;7757;52.626;4.746;2022-12-29T08:18:33;99518.41;;;19.45;58.37
15314;BME280;7757;52.626;4.746;2022-12-29T08:21:02;99523.53;;;19.47;58.24
15314;BME280;7757;52.626;4.746;2022-12-29T08:23:30;99528.13;;;19.46;58.82
15314;BME280;7757;52.626;4.746;2022-12-29T08:25:57;99533.28;;;19.53;57.81
15314;BME280;7757;52.626;4.746;2022-12-29T08:28:24;99548.44;;;19.59;57.86
15314;BME280;7757;52.626;4.746;2022-12-29T08:30:51;99530.00;;;19.61;57.88
15314;BME280;7757;52.626;4.746;2022-12-29T08:33:17;99544.91;;;19.69;57.38
15314;BME280;7757;52.626;4.746;2022-12-29T08:35:44;99548.66;;;19.78;57.20
15314;BME280;7757;52.626;4.746;2022-12-29T08:38:11;99543.25;;;19.78;57.21
15314;BME280;7757;52.626;4.746;2022-12-29T08:40:39;99557.84;;;19.82;56.93
15314;BME280;7757;52.626;4.746;2022-12-29T08:43:05;99563.28;;;19.87;56.57
15314;BME280;7757;52.626;4.746;2022-12-29T08:45:32;99561.91;;;19.89;56.55
15314;BME280;7757;52.626;4.746;2022-12-29T08:47:59;99563.25;;;19.92;57.00
15314;BME280;7757;52.626;4.746;2022-12-29T08:50:25;99563.22;;;19.97;57.01
15314;BME280;7757;52.626;4.746;2022-12-29T08:52:52;99560.25;;;19.98;56.49
15314;BME280;7757;52.626;4.746;2022-12-29T08:55:18;99572.97;;;20.03;56.53
15314;BME280;7757;52.626;4.746;2022-12-29T08:57:46;99567.28;;;20.04;57.00
15314;BME280;7757;52.626;4.746;2022-12-29T09:00:14;99583.00;;;20.02;57.17
15314;BME280;7757;52.626;4.746;2022-12-29T09:02:41;99582.75;;;19.99;56.44
15314;BME280;7757;52.626;4.746;2022-12-29T09:05:08;99580.59;;;20.01;56.74
15314;BME280;7757;52.626;4.746;2022-12-29T09:07:35;99576.47;;;20.09;56.48
15314;BME280;7757;52.626;4.746;2022-12-29T09:10:03;99590.59;;;20.05;56.64
15314;BME280;7757;52.626;4.746;2022-12-29T09:12:30;99609.59;;;20.05;56.65
15314;BME280;7757;52.626;4.746;2022-12-29T09:14:58;99610.41;;;20.06;56.75
15314;BME280;7757;52.626;4.746;2022-12-29T09:17:25;99601.75;;;20.04;56.59
15314;BME280;7757;52.626;4.746;2022-12-29T09:20:11;99615.88;;;20.01;57.16
15314;BME280;7757;52.626;4.746;2022-12-29T09:22:38;99628.34;;;20.02;56.66
15314;BME280;7757;52.626;4.746;2022-12-29T09:25:05;99635.13;;;19.99;56.72
15314;BME280;7757;52.626;4.746;2022-12-29T09:27:32;99637.31;;;19.97;56.47
15314;BME280;7757;52.626;4.746;2022-12-29T09:30:00;99636.53;;;19.92;57.09
15314;BME280;7757;52.626;4.746;2022-12-29T09:32:26;99643.31;;;19.89;56.84
15314;BME280;7757;52.626;4.746;2022-12-29T09:34:53;99659.84;;;19.93;57.09
15314;BME280;7757;52.626;4.746;2022-12-29T09:37:20;99660.66;;;19.93;57.39
15314;BME280;7757;52.626;4.746;2022-12-29T09:39:46;99666.63;;;19.90;56.87
15314;BME280;7757;52.626;4.746;2022-12-29T09:42:18;99671.81;;;19.92;57.00
15314;BME280;7757;52.626;4.746;2022-12-29T09:44:56;99679.94;;;19.97;57.09
15314;BME280;7757;52.626;4.746;2022-12-29T09:47:29;99689.97;;;20.01;56.94
15314;BME280;7757;52.626;4.746;2022-12-29T09:49:59;99688.31;;;20.05;56.78
15314;BME280;7757;52.626;4.746;2022-12-29T09:52:31;99695.41;;;20.01;56.57
15314;BME280;7757;52.626;4.746;2022-12-29T09:55:00;99697.81;;;20.13;56.96
15314;BME280;7757;52.626;4.746;2022-12-29T09:57:32;99715.44;;;20.26;56.43
15314;BME280;7757;52.626;4.746;2022-12-29T10:00:05;99729.56;;;20.28;56.59
15314;BME280;7757;52.626;4.746;2022-12-29T10:02:37;99726.56;;;20.29;56.53
15314;BME280;7757;52.626;4.746;2022-12-29T10:05:19;99710.50;;;20.23;55.90
15314;BME280;7757;52.626;4.746;2022-12-29T10:07:52;99726.81;;;20.33;55.89
15314;BME280;7757;52.626;4.746;2022-12-29T10:10:31;99724.06;;;20.38;55.96
15314;BME280;7757;52.626;4.746;2022-12-29T10:13:14;99737.66;;;20.43;55.81
15314;BME280;7757;52.626;4.746;2022-12-29T10:15:54;99733.81;;;20.49;55.70
15314;BME280;7757;52.626;4.746;2022-12-29T10:18:41;99737.34;;;20.54;55.55
15314;BME280;7757;52.626;4.746;2022-12-29T10:21:19;99746.00;;;20.62;55.57
15314;BME280;7757;52.626;4.746;2022-12-29T10:23:51;99747.06;;;20.66;54.55
15314;BME280;7757;52.626;4.746;2022-12-29T10:26:21;99752.28;;;20.57;55.69
15314;BME280;7757;52.626;4.746;2022-12-29T10:28:52;99760.94;;;20.59;55.57
15314;BME280;7757;52.626;4.746;2022-12-29T10:31:22;99760.94;;;20.59;55.50
15314;BME280;7757;52.626;4.746;2022-12-29T10:33:53;99768.28;;;20.58;55.14
15314;BME280;7757;52.626;4.746;2022-12-29T10:36:27;99780.50;;;20.61;54.98
15314;BME280;7757;52.626;4.746;2022-12-29T10:39:04;99782.13;;;20.62;55.56
15314;BME280;7757;52.626;4.746;2022-12-29T10:41:36;99789.47;;;20.62;55.28
15314;BME280;7757;52.626;4.746;2022-12-29T10:44:04;99792.75;;;20.53;55.38
15314;BME280;7757;52.626;4.746;2022-12-29T10:46:34;99796.28;;;20.54;55.21
15314;BME280;7757;52.626;4.746;2022-12-29T10:49:04;99804.41;;;20.59;55.33
15314;BME280;7757;52.626;4.746;2022-12-29T10:51:33;99811.22;;;20.56;55.65
15314;BME280;7757;52.626;4.746;2022-12-29T10:54:06;99810.13;;;20.63;55.18
15314;BME280;7757;52.626;4.746;2022-12-29T10:56:40;99823.69;;;20.63;55.27
15314;BME280;7757;52.626;4.746;2022-12-29T10:59:14;99823.72;;;20.57;55.19
15314;BME280;7757;52.626;4.746;2022-12-29T11:01:51;99825.91;;;20.50;55.14
15314;BME280;7757;52.626;4.746;2022-12-29T11:04:35;99833.50;;;20.43;55.24
15314;BME280;7757;52.626;4.746;2022-12-29T11:07:06;99839.78;;;20.44;55.30
15314;BME280;7757;52.626;4.746;2022-12-29T11:09:37;99856.06;;;20.44;55.71
15314;BME280;7757;52.626;4.746;2022-12-29T11:12:22;99860.41;;;20.45;55.42
15314;BME280;7757;52.626;4.746;2022-12-29T11:15:01;99853.66;;;19.87;56.43
15314;BME280;7757;52.626;4.746;2022-12-29T11:17:28;99855.78;;;19.65;56.04
15314;BME280;7757;52.626;4.746;2022-12-29T11:20:19;99854.94;;;19.49;56.41
15314;BME280;7757;52.626;4.746;2022-12-29T11:22:46;99852.44;;;19.37;56.29
15314;BME280;7757;52.626;4.746;2022-12-29T11:25:13;99867.88;;;19.27;56.69
15314;BME280;7757;52.626;4.746;2022-12-29T11:27:54;99871.34;;;19.22;56.56
15314;BME280;7757;52.626;4.746;2022-12-29T11:30:24;99876.47;;;19.14;56.85
15314;BME280;7757;52.626;4.746;2022-12-29T11:32:54;99874.59;;;19.09;57.04
15314;BME280;7757;52.626;4.746;2022-12-29T11:35:35;99867.50;;;19.03;56.98
15314;BME280;7757;52.626;4.746;2022-12-29T11:38:03;99881.28;;;18.97;57.13
15314;BME280;7757;52.626;4.746;2022-12-29T11:40:31;99882.09;;;18.92;57.30
15314;BME280;7757;52.626;4.746;2022-12-29T11:43:04;99884.81;;;18.92;57.23
15314;BME280;7757;52.626;4.746;2022-12-29T11:45:33;99898.75;;;19.16;57.50
15314;BME280;7757;52.626;4.746;2022-12-29T11:48:07;99900.75;;;19.40;57.55
15314;BME280;7757;52.626;4.746;2022-12-29T11:50:39;99901.84;;;19.49;57.49
15314;BME280;7757;52.626;4.746;2022-12-29T11:53:14;99908.38;;;19.54;57.38
15314;BME280;7757;52.626;4.746;2022-12-29T11:55:51;99905.69;;;19.59;56.98
15314;BME280;7757;52.626;4.746;2022-12-29T11:58:18;99905.69;;;19.64;57.26
15314;BME280;7757;52.626;4.746;2022-12-29T12:00:45;99914.09;;;19.67;56.96
15314;BME280;7757;52.626;4.746;2022-12-29T12:03:15;99922.78;;;19.69;57.49
15314;BME280;7757;52.626;4.746;2022-12-29T12:05:47;99917.66;;;19.73;57.32
15314;BME280;7757;52.626;4.746;2022-12-29T12:08:22;99915.47;;;19.70;57.37
15314;BME280;7757;52.626;4.746;2022-12-29T12:10:55;99922.53;;;19.71;57.32
15314;BME280;7757;52.626;4.746;2022-12-29T12:13:29;99922.81;;;19.74;57.58
15314;BME280;7757;52.626;4.746;2022-12-29T12:16:03;99929.84;;;19.75;57.56
15314;BME280;7757;52.626;4.746;2022-12-29T12:18:39;99935.28;;;19.75;57.14
15314;BME280;7757;52.626;4.746;2022-12-29T12:21:13;99930.41;;;19.77;57.63
15314;BME280;7757;52.626;4.746;2022-12-29T12:26:48;99941.28;;;19.77;57.40
15314;BME280;7757;52.626;4.746;2022-12-29T12:29:22;99946.72;;;19.82;57.15
15314;BME280;7757;52.626;4.746;2022-12-29T12:31:54;99941.56;;;19.81;57.28
15314;BME280;7757;52.626;4.746;2022-12-29T12:34:26;99944.81;;;19.83;57.28
15314;BME280;7757;52.626;4.746;2022-12-29T12:37:15;99948.88;;;19.85;57.29
15314;BME280;7757;52.626;4.746;2022-12-29T12:39:49;99947.53;;;19.83;57.54
15314;BME280;7757;52.626;4.746;2022-12-29T12:42:36;99948.88;;;19.80;57.37
15314;BME280;7757;52.626;4.746;2022-12-29T12:45:29;99958.09;;;19.84;57.14
15314;BME280;7757;52.626;4.746;2022-12-29T12:48:05;99958.09;;;19.84;57.16
15314;BME280;7757;52.626;4.746;2022-12-29T12:50:44;99960.56;;;19.81;57.28
15314;BME280;7757;52.626;4.746;2022-12-29T12:53:27;99973.59;;;19.84;57.27
15314;BME280;7757;52.626;4.746;2022-12-29T12:56:15;99964.34;;;19.85;57.05
15314;BME280;7757;52.626;4.746;2022-12-29T12:58:49;99969.78;;;19.85;57.17
15314;BME280;7757;52.626;4.746;2022-12-29T13:01:30;99965.97;;;19.86;57.38
15314;BME280;7757;52.626;4.746;2022-12-29T13:04:30;99964.06;;;19.81;57.26
15314;BME280;7757;52.626;4.746;2022-12-29T13:07:06;99980.63;;;19.85;57.25
15314;BME280;7757;52.626;4.746;2022-12-29T13:09:48;99979.03;;;19.89;57.01
15314;BME280;7757;52.626;4.746;2022-12-29T13:12:25;99990.41;;;19.86;57.32
15314;BME280;7757;52.626;4.746;2022-12-29T13:15:10;99988.25;;;19.93;56.93
15314;BME280;7757;52.626;4.746;2022-12-29T13:17:45;99991.81;;;19.98;56.96
15314;BME280;7757;52.626;4.746;2022-12-29T13:20:22;99983.09;;;19.91;56.26
15314;BME280;7757;52.626;4.746;2022-12-29T13:22:57;99991.22;;;19.91;57.32
15314;BME280;7757;52.626;4.746;2022-12-29T13:25:31;99989.59;;;19.90;57.28
15314;BME280;7757;52.626;4.746;2022-12-29T13:28:03;99993.38;;;19.84;57.03
15314;BME280;7757;52.626;4.746;2022-12-29T13:30:34;100002.09;;;19.86;57.02
15314;BME280;7757;52.626;4.746;2022-12-29T13:33:10;100002.09;;;19.86;57.33